Time;durP1;ratioP1;P1;durP2;ratioP2;P2;SDS_P1;SDS_P2;PMS_P1;PMS_P2;Temp;Humidity;BMP_temperature;BMP_pressure;BME280_temperature;BME280_humidity;BME280_pressure;Samples;Min_cycle;Max_cycle;Signal;HPM_P1;HPM_P2
2024/01/25 00:01:08;;;;;;;;;;;;;;;;;;5096462;28;19920;-68
2024/01/25 00:03:34;;;;;;;;;;;;;;;;;;5097232;28;19915;-68
2024/01/25 00:06:00;;;;;;;;;;;;;;;;;;5097067;28;19915;-68
2024/01/25 00:08:26;;;;;;;;;;;;;;;;;;5096719;28;19908;-67
2024/01/25 00:10:52;;;;;;;;;;;;;;;;;;5097591;28;20364;-70
2024/01/25 00:13:18;;;;;;;;;;;;;;;;;;5095731;28;19972;-68
2024/01/25 00:15:44;;;;;;;;;;;;;;;;;;5096463;28;19995;-68
2024/01/25 00:18:10;;;;;;;;;;;;;;;;;;5095582;28;20006;-68
2024/01/25 00:20:36;;;;;;;;;;;;;;;;;;5096303;28;19912;-68
2024/01/25 00:23:02;;;;;;;;;;;;;;;;;;5097093;28;20385;-68
2024/01/25 00:25:28;;;;;;;;;;;;;;;;;;5096949;28;19919;-68
2024/01/25 00:27:54;;;;;;;;;;;;;;;;;;5096254;28;19908;-68
2024/01/25 00:30:20;;;;;;;;;;;;;;;;;;5096671;28;19915;-68
2024/01/25 00:32:46;;;;;;;;;;;;;;;;;;5096443;28;19909;-68
2024/01/25 00:35:13;;;;;;;;;;;;;;;;;;5095751;28;19915;-68
2024/01/25 00:37:39;;;;;;;;;;;;;;;;;;5096481;28;19918;-68
2024/01/25 00:40:05;;;;;;;;;;;;;;;;;;5095097;28;19999;-68
2024/01/25 00:42:31;;;;;;;;;;;;;;;;;;5095987;28;19916;-68
2024/01/25 00:44:57;;;;;;;;;;;;;;;;;;5096366;28;19915;-68
2024/01/25 00:47:23;;;;;;;;;;;;;;;;;;5096286;28;20061;-68
2024/01/25 00:49:49;;;;;;;;;;;;;;;;;;5096459;28;19908;-68
2024/01/25 00:52:15;;;;;;;;;;;;;;;;;;5096192;28;19909;-67
2024/01/25 00:54:41;;;;;;;;;;;;;;;;;;5096370;28;20360;-67
2024/01/25 00:57:07;;;;;;;;;;;;;;;;;;5095656;28;19944;-68
2024/01/25 00:59:33;;;;;;;;;;;;;;;;;;5096219;28;19915;-67
2024/01/25 01:01:59;;;;;;;;;;;;;;;;;;5095808;28;19920;-67
2024/01/25 01:04:25;;;;;;;;;;;;;;;;;;5095652;28;19908;-67
2024/01/25 01:06:51;;;;;;;;;;;;;;;;;;5095913;28;19908;-68
2024/01/25 01:09:17;;;;;;;;;;;;;;;;;;5096056;28;19912;-68
2024/01/25 01:11:43;;;;;;;;;;;;;;;;;;5094143;28;20002;-67
2024/01/25 01:14:09;;;;;;;;;;;;;;;;;;5095968;28;20432;-67
2024/01/25 01:16:36;;;;;;;;;;;;;;;;;;5095728;28;20280;-68
2024/01/25 01:19:05;;;;;;;;;;;;;;;;;;5095303;28;20326;-68
2024/01/25 01:21:31;;;;;;;;;;;;;;;;;;5094250;28;20367;-68
2024/01/25 01:23:57;;;;;;;;;;;;;;;;;;5095328;28;19961;-67
2024/01/25 01:26:23;;;;;;;;;;;;;;;;;;5095797;28;19908;-69
2024/01/25 01:28:49;;;;;;;;;;;;;;;;;;5095461;28;19915;-68
2024/01/25 01:31:15;;;;;;;;;;;;;;;;;;5094985;28;20381;-68
2024/01/25 01:33:41;;;;;;;;;;;;;;;;;;5095388;28;19987;-68
2024/01/25 01:36:07;;;;;;;;;;;;;;;;;;5094051;28;20026;-68
2024/01/25 01:38:33;;;;;;;;;;;;;;;;;;5093640;28;19908;-68
2024/01/25 01:40:59;;;;;;;;;;;;;;;;;;5095428;28;20015;-69
2024/01/25 01:43:24;;;;;;;;;;;;;;;;;;5095217;28;19912;-68
2024/01/25 01:45:50;;;;;;;;;;;;;;;;;;5093909;28;19912;-68
2024/01/25 01:48:16;;;;;;;;;;;;;;;;;;5093845;28;20391;-68
2024/01/25 01:50:42;;;;;;;;;;;;;;;;;;5095515;28;20272;-68
2024/01/25 01:53:08;;;;;;;;;;;;;;;;;;5094577;28;19994;-67
2024/01/25 01:55:34;;;;;;;;;;;;;;;;;;5094890;28;19908;-68
2024/01/25 01:58:00;;;;;;;;;;;;;;;;;;5094869;28;19950;-68
2024/01/25 02:00:26;;;;;;;;;;;;;;;;;;5093019;28;19908;-67
2024/01/25 02:02:52;;;;;;;;;;;;;;;;;;5095267;28;19920;-68
2024/01/25 02:05:18;;;;;;;;;;;;;;;;;;5093515;28;19908;-68
2024/01/25 02:07:44;;;;;;;;;;;;;;;;;;5094319;28;19947;-68
2024/01/25 02:10:10;;;;;;;;;;;;;;;;;;5094638;28;19939;-68
2024/01/25 02:12:36;;;;;;;;;;;;;;;;;;5095013;28;19999;-68
2024/01/25 02:15:03;;;;;;;;;;;;;;;;;;5094214;28;20375;-68
2024/01/25 02:17:29;;;;;;;;;;;;;;;;;;5094699;28;20427;-68
2024/01/25 02:19:55;;;;;;;;;;;;;;;;;;5093260;28;19955;-68
2024/01/25 02:22:21;;;;;;;;;;;;;;;;;;5094014;28;19976;-69
2024/01/25 02:24:47;;;;;;;;;;;;;;;;;;5094433;28;19915;-68
2024/01/25 02:27:13;;;;;;;;;;;;;;;;;;5093981;28;19908;-69
2024/01/25 02:29:39;;;;;;;;;;;;;;;;;;5093102;28;19908;-68
2024/01/25 02:32:05;;;;;;;;;;;;;;;;;;5094303;28;19915;-68
2024/01/25 02:34:30;;;;;;;;;;;;;;;;;;5093876;28;19908;-68
2024/01/25 02:36:56;;;;;;;;;;;;;;;;;;5094400;28;19915;-68
2024/01/25 02:39:22;;;;;;;;;;;;;;;;;;5092900;28;19912;-68
2024/01/25 02:41:48;;;;;;;;;;;;;;;;;;5093728;28;19916;-68
2024/01/25 02:44:14;;;;;;;;;;;;;;;;;;5092937;28;20376;-68
2024/01/25 02:46:40;;;;;;;;;;;;;;;;;;5094047;28;20284;-68
2024/01/25 02:49:06;;;;;;;;;;;;;;;;;;5093676;28;19977;-68
2024/01/25 02:51:32;;;;;;;;;;;;;;;;;;5094054;28;19909;-69
2024/01/25 02:53:58;;;;;;;;;;;;;;;;;;5094038;28;19994;-68
2024/01/25 02:56:24;;;;;;;;;;;;;;;;;;5093559;28;19930;-68
2024/01/25 02:58:50;;;;;;;;;;;;;;;;;;5092655;28;19912;-68
2024/01/25 03:01:16;;;;;;;;;;;;;;;;;;5093627;28;19928;-68
2024/01/25 03:03:42;;;;;;;;;;;;;;;;;;5093537;28;19908;-68
2024/01/25 03:06:09;;;;;;;;;;;;;;;;;;5092584;28;19991;-69
2024/01/25 03:08:35;;;;;;;;;;;;;;;;;;5094195;28;19909;-69
2024/01/25 03:11:03;;;;;;;;;;;;;;;;;;5093403;28;19908;-68
2024/01/25 03:13:29;;;;;;;;;;;;;;;;;;5093840;28;19995;-68
2024/01/25 03:15:55;;;;;;;;;;;;;;;;;;5094051;28;20403;-68
2024/01/25 03:18:21;;;;;;;;;;;;;;;;;;5092100;28;19931;-68
2024/01/25 03:20:50;;;;;;;;;;;;;;;;;;5093873;28;19908;-67
2024/01/25 03:23:16;;;;;;;;;;;;;;;;;;5094080;28;19913;-67
2024/01/25 03:25:42;;;;;;;;;;;;;;;;;;5093471;28;19916;-67
2024/01/25 03:28:09;;;;;;;;;;;;;;;;;;5093690;28;19908;-67
2024/01/25 03:30:35;;;;;;;;;;;;;;;;;;5093241;28;19915;-67
2024/01/25 03:33:01;;;;;;;;;;;;;;;;;;5093884;28;19908;-67
2024/01/25 03:35:26;;;;;;;;;;;;;;;;;;5093763;28;19951;-67
2024/01/25 03:37:52;;;;;;;;;;;;;;;;;;5093235;28;20021;-67
2024/01/25 03:40:19;;;;;;;;;;;;;;;;;;5093759;28;19908;-68
2024/01/25 03:42:44;;;;;;;;;;;;;;;;;;5093557;28;20269;-67
2024/01/25 03:45:10;;;;;;;;;;;;;;;;;;5093138;28;19915;-67
2024/01/25 03:47:36;;;;;;;;;;;;;;;;;;5093759;28;19908;-67
2024/01/25 03:50:02;;;;;;;;;;;;;;;;;;5093462;28;20287;-68
2024/01/25 03:52:30;;;;;;;;;;;;;;;;;;5093161;28;19908;-68
2024/01/25 03:54:56;;;;;;;;;;;;;;;;;;5093703;28;19912;-67
2024/01/25 03:57:22;;;;;;;;;;;;;;;;;;5093401;28;20288;-68
2024/01/25 03:59:47;;;;;;;;;;;;;;;;;;5092974;28;20304;-68
2024/01/25 04:02:13;;;;;;;;;;;;;;;;;;5091908;28;20002;-68
2024/01/25 04:04:39;;;;;;;;;;;;;;;;;;5093378;28;19915;-69
2024/01/25 04:07:05;;;;;;;;;;;;;;;;;;5092999;28;19919;-68
2024/01/25 04:09:31;;;;;;;;;;;;;;;;;;5095639;28;19908;-68
2024/01/25 04:11:57;;;;;;;;;;;;;;;;;;5097263;28;19916;-68
2024/01/25 04:14:23;;;;;;;;;;;;;;;;;;5096526;28;19908;-68
2024/01/25 04:16:49;;;;;;;;;;;;;;;;;;5096944;28;19908;-68
2024/01/25 04:19:15;;;;;;;;;;;;;;;;;;5096802;28;19928;-68
2024/01/25 04:21:41;;;;;;;;;;;;;;;;;;5096392;28;20326;-68
2024/01/25 04:24:07;;;;;;;;;;;;;;;;;;5096807;28;20261;-68
2024/01/25 04:26:33;;;;;;;;;;;;;;;;;;5095439;28;19908;-68
2024/01/25 04:28:59;;;;;;;;;;;;;;;;;;5096327;28;19908;-68
2024/01/25 04:31:25;;;;;;;;;;;;;;;;;;5096712;28;19915;-68
2024/01/25 04:33:51;;;;;;;;;;;;;;;;;;5096223;28;19908;-68
2024/01/25 04:36:17;;;;;;;;;;;;;;;;;;5096456;28;19916;-68
2024/01/25 04:38:43;;;;;;;;;;;;;;;;;;5096508;28;19908;-68
2024/01/25 04:41:09;;;;;;;;;;;;;;;;;;5095825;28;19916;-68
2024/01/25 04:43:36;;;;;;;;;;;;;;;;;;5095159;28;20380;-68
2024/01/25 04:46:02;;;;;;;;;;;;;;;;;;5096292;28;19912;-68
2024/01/25 04:48:28;;;;;;;;;;;;;;;;;;5095882;28;19944;-68
2024/01/25 04:50:54;;;;;;;;;;;;;;;;;;5096227;28;19915;-68
2024/01/25 04:53:20;;;;;;;;;;;;;;;;;;5096174;28;20332;-68
2024/01/25 04:55:46;;;;;;;;;;;;;;;;;;5095694;28;19969;-68
2024/01/25 04:58:12;;;;;;;;;;;;;;;;;;5096020;28;19914;-68
2024/01/25 05:00:39;;;;;;;;;;;;;;;;;;5095976;28;19965;-68
2024/01/25 05:03:05;;;;;;;;;;;;;;;;;;5094330;28;20380;-68
2024/01/25 05:05:31;;;;;;;;;;;;;;;;;;5096265;28;19907;-68
2024/01/25 05:07:57;;;;;;;;;;;;;;;;;;5095937;28;20489;-68
2024/01/25 05:10:25;;;;;;;;;;;;;;;;;;5095583;28;20364;-68
2024/01/25 05:12:51;;;;;;;;;;;;;;;;;;5095795;28;19908;-68
2024/01/25 05:15:17;;;;;;;;;;;;;;;;;;5095736;28;19908;-68
2024/01/25 05:17:43;;;;;;;;;;;;;;;;;;5095266;28;19912;-68
2024/01/25 05:20:09;;;;;;;;;;;;;;;;;;5095495;28;19908;-68
2024/01/25 05:22:40;;;;;;;;;;;;;;;;;;5095566;28;19922;-68
2024/01/25 05:25:06;;;;;;;;;;;;;;;;;;5094083;28;19939;-68
2024/01/25 05:27:32;;;;;;;;;;;;;;;;;;5093350;28;19955;-68
2024/01/25 05:29:58;;;;;;;;;;;;;;;;;;5091649;28;19942;-68
2024/01/25 05:32:24;;;;;;;;;;;;;;;;;;5093271;28;19955;-68
2024/01/25 05:34:50;;;;;;;;;;;;;;;;;;5091961;28;19935;-68
2024/01/25 05:37:16;;;;;;;;;;;;;;;;;;5093067;28;19943;-68
2024/01/25 05:39:42;;;;;;;;;;;;;;;;;;5093187;28;19908;-68
2024/01/25 05:42:08;;;;;;;;;;;;;;;;;;5093427;28;20014;-68
2024/01/25 05:44:34;;;;;;;;;;;;;;;;;;5092777;28;19908;-68
2024/01/25 05:47:00;;;;;;;;;;;;;;;;;;5091719;28;20331;-68
2024/01/25 05:49:26;;;;;;;;;;;;;;;;;;5092984;28;19950;-68
2024/01/25 05:51:52;;;;;;;;;;;;;;;;;;5092563;28;19943;-68
2024/01/25 05:54:18;;;;;;;;;;;;;;;;;;5092987;28;19908;-68
2024/01/25 05:56:44;;;;;;;;;;;;;;;;;;5092985;28;19908;-68
2024/01/25 05:59:10;;;;;;;;;;;;;;;;;;5094549;28;19908;-68
2024/01/25 06:01:36;;;;;;;;;;;;;;;;;;5094723;28;19924;-67
2024/01/25 06:04:02;;;;;;;;;;;;;;;;;;5095141;28;20004;-68
2024/01/25 06:06:28;;;;;;;;;;;;;;;;;;5094312;28;19908;-68
2024/01/25 06:08:54;;;;;;;;;;;;;;;;;;5093453;28;19916;-69
2024/01/25 06:11:20;;;;;;;;;;;;;;;;;;5094815;28;19965;-69
2024/01/25 06:13:46;;;;;;;;;;;;;;;;;;5092348;28;20395;-70
2024/01/25 06:16:12;;;;;;;;;;;;;;;;;;5114508;28;19915;-70
2024/01/25 06:18:38;;;;;;;;;;;;;;;;;;5114742;28;19908;-67
2024/01/25 06:21:04;;;;;;;;;;;;;;;;;;5113699;28;19999;-66
2024/01/25 06:23:30;;;;;;;;;;;;;;;;;;5088848;28;19916;-67
2024/01/25 06:25:56;;;;;;;;;;;;;;;;;;5097977;28;19915;-66
2024/01/25 06:28:22;;;;;;;;;;;;;;;;;;5101708;28;20503;-66
2024/01/25 06:30:48;;;;;;;;;;;;;;;;;;5096154;28;19912;-67
2024/01/25 06:33:15;;;;;;;;;;;;;;;;;;5098376;28;19912;-66
2024/01/25 06:35:41;;;;;;;;;;;;;;;;;;5091351;28;19915;-66
2024/01/25 06:38:07;;;;;;;;;;;;;;;;;;5091137;28;19920;-65
2024/01/25 06:40:33;;;;;;;;;;;;;;;;;;5102128;28;19999;-66
2024/01/25 06:42:59;;;;;;;;;;;;;;;;;;5091080;28;20007;-66
2024/01/25 06:45:26;;;;;;;;;;;;;;;;;;5087802;28;19986;-67
2024/01/25 06:47:52;;;;;;;;;;;;;;;;;;5092673;28;19965;-67
2024/01/25 06:50:17;;;;;;;;;;;;;;;;;;5085995;28;19916;-66
2024/01/25 06:52:43;;;;;;;;;;;;;;;;;;5086969;28;19923;-67
2024/01/25 06:55:09;;;;;;;;;;;;;;;;;;5079286;28;19953;-68
2024/01/25 06:57:35;;;;;;;;;;;;;;;;;;5090007;28;19944;-69
2024/01/25 07:00:02;;;;;;;;;;;;;;;;;;5100792;28;19911;-68
2024/01/25 07:02:28;;;;;;;;;;;;;;;;;;5088613;28;20022;-66
2024/01/25 07:04:54;;;;;;;;;;;;;;;;;;5083322;28;20672;-68
2024/01/25 07:07:20;;;;;;;;;;;;;;;;;;5101133;28;19964;-67
2024/01/25 07:09:46;;;;;;;;;;;;;;;;;;5104260;28;19912;-66
2024/01/25 07:12:12;;;;;;;;;;;;;;;;;;5087806;28;19913;-67
2024/01/25 07:14:38;;;;;;;;;;;;;;;;;;5099111;28;20379;-67
2024/01/25 07:17:05;;;;;;;;;;;;;;;;;;5099709;28;19912;-68
2024/01/25 07:19:31;;;;;;;;;;;;;;;;;;5101995;28;19919;-68
2024/01/25 07:21:57;;;;;;;;;;;;;;;;;;5089513;28;19928;-68
2024/01/25 07:24:23;;;;;;;;;;;;;;;;;;5107486;28;20659;-68
2024/01/25 07:26:49;;;;;;;;;;;;;;;;;;5107385;28;19915;-68
2024/01/25 07:29:15;;;;;;;;;;;;;;;;;;5088853;28;19916;-68
2024/01/25 07:31:41;;;;;;;;;;;;;;;;;;5087899;28;19915;-68
2024/01/25 07:34:07;;;;;;;;;;;;;;;;;;5091683;28;19916;-68
2024/01/25 07:36:33;;;;;;;;;;;;;;;;;;5092139;28;19913;-68
2024/01/25 07:38:59;;;;;;;;;;;;;;;;;;5091790;28;19912;-68
2024/01/25 07:41:25;;;;;;;;;;;;;;;;;;5083847;28;19925;-67
2024/01/25 07:43:54;;;;;;;;;;;;;;;;;;5089314;28;19916;-68
2024/01/25 07:46:20;;;;;;;;;;;;;;;;;;5099040;28;19912;-67
2024/01/25 07:48:46;;;;;;;;;;;;;;;;;;5093834;28;20058;-68
2024/01/25 07:51:13;;;;;;;;;;;;;;;;;;5093976;28;19944;-67
2024/01/25 07:53:39;;;;;;;;;;;;;;;;;;5102198;28;19978;-69
2024/01/25 07:56:05;;;;;;;;;;;;;;;;;;5093393;28;19940;-67
2024/01/25 07:58:31;;;;;;;;;;;;;;;;;;5096631;28;19930;-68
2024/01/25 08:00:57;;;;;;;;;;;;;;;;;;5104489;28;20000;-69
2024/01/25 08:03:23;;;;;;;;;;;;;;;;;;5104677;28;19912;-68
2024/01/25 08:05:49;;;;;;;;;;;;;;;;;;5103547;28;19957;-69
2024/01/25 08:08:15;;;;;;;;;;;;;;;;;;5101619;28;19923;-69
2024/01/25 08:10:41;;;;;;;;;;;;;;;;;;5095971;28;19912;-69
2024/01/25 08:13:07;;;;;;;;;;;;;;;;;;5094535;28;19964;-68
2024/01/25 08:15:33;;;;;;;;;;;;;;;;;;5094732;28;20010;-68
2024/01/25 08:17:59;;;;;;;;;;;;;;;;;;5097069;28;20105;-69
2024/01/25 08:20:25;;;;;;;;;;;;;;;;;;5097282;28;19923;-70
2024/01/25 08:22:51;;;;;;;;;;;;;;;;;;5099767;28;20458;-69
2024/01/25 08:25:17;;;;;;;;;;;;;;;;;;5113723;28;19912;-72
2024/01/25 08:27:43;;;;;;;;;;;;;;;;;;5108120;28;19919;-69
2024/01/25 08:30:09;;;;;;;;;;;;;;;;;;5097956;28;19919;-69
2024/01/25 08:32:35;;;;;;;;;;;;;;;;;;5093574;28;19935;-68
2024/01/25 08:35:01;;;;;;;;;;;;;;;;;;5101580;28;19912;-69
2024/01/25 08:37:27;;;;;;;;;;;;;;;;;;5094159;28;19920;-66
2024/01/25 08:39:53;;;;;;;;;;;;;;;;;;5095728;28;19923;-68
2024/01/25 08:42:19;;;;;;;;;;;;;;;;;;5091582;28;20020;-71
2024/01/25 08:44:49;;;;;;;;;;;;;;;;;;5092355;28;20372;-69
2024/01/25 08:47:15;;;;;;;;;;;;;;;;;;5091418;28;19920;-70
2024/01/25 08:49:42;;;;;;;;;;;;;;;;;;5099935;28;19946;-69
2024/01/25 08:52:08;;;;;;;;;;;;;;;;;;5111644;28;19912;-70
2024/01/25 08:54:34;;;;;;;;;;;;;;;;;;5110264;28;19927;-73
2024/01/25 08:57:00;;;;;;;;;;;;;;;;;;5106847;28;20580;-71
2024/01/25 08:59:26;;;;;;;;;;;;;;;;;;5087130;28;19998;-73
2024/01/25 09:01:52;;;;;;;;;;;;;;;;;;5085966;28;19924;-71
2024/01/25 09:04:18;;;;;;;;;;;;;;;;;;5106609;28;19985;-72
2024/01/25 09:06:44;;;;;;;;;;;;;;;;;;5086937;28;19966;-68
2024/01/25 09:09:10;;;;;;;;;;;;;;;;;;5094534;28;19915;-69
2024/01/25 09:11:36;;;;;;;;;;;;;;;;;;5088456;28;19965;-69
2024/01/25 09:14:02;;;;;;;;;;;;;;;;;;5092084;28;19955;-69
2024/01/25 09:16:28;;;;;;;;;;;;;;;;;;5094875;28;19918;-69
2024/01/25 09:18:54;;;;;;;;;;;;;;;;;;5089553;28;19913;-69
2024/01/25 09:21:20;;;;;;;;;;;;;;;;;;5073466;28;19951;-69
2024/01/25 09:23:46;;;;;;;;;;;;;;;;;;5090978;28;19955;-68
2024/01/25 09:26:12;;;;;;;;;;;;;;;;;;5082613;28;19916;-71
2024/01/25 09:28:38;;;;;;;;;;;;;;;;;;5091271;28;19912;-69
2024/01/25 09:31:04;;;;;;;;;;;;;;;;;;5093083;28;19916;-71
2024/01/25 09:33:30;;;;;;;;;;;;;;;;;;5090841;28;20517;-71
2024/01/25 09:35:56;;;;;;;;;;;;;;;;;;5093688;28;19978;-70
2024/01/25 09:38:22;;;;;;;;;;;;;;;;;;5103174;28;19916;-70
2024/01/25 09:40:51;;;;;;;;;;;;;;;;;;5093942;28;19916;-68
2024/01/25 09:43:17;;;;;;;;;;;;;;;;;;5104994;28;19956;-68
2024/01/25 09:45:44;;;;;;;;;;;;;;;;;;5108075;28;19918;-68
2024/01/25 09:48:10;;;;;;;;;;;;;;;;;;5089129;28;19916;-70
2024/01/25 09:50:37;;;;;;;;;;;;;;;;;;5099381;28;19916;-69
2024/01/25 09:53:05;;;;;;;;;;;;;;;;;;5100788;28;19920;-69
2024/01/25 09:55:31;;;;;;;;;;;;;;;;;;5111685;28;19922;-68
2024/01/25 09:57:57;;;;;;;;;;;;;;;;;;5090304;28;20423;-68
2024/01/25 10:00:23;;;;;;;;;;;;;;;;;;5092762;28;20557;-68
2024/01/25 10:02:49;;;;;;;;;;;;;;;;;;5101938;28;19928;-71
2024/01/25 10:05:15;;;;;;;;;;;;;;;;;;5098305;28;19931;-69
2024/01/25 10:07:41;;;;;;;;;;;;;;;;;;5091136;28;19919;-70
2024/01/25 10:10:08;;;;;;;;;;;;;;;;;;5096362;28;19920;-71
2024/01/25 10:12:34;;;;;;;;;;;;;;;;;;5088843;28;19923;-71
2024/01/25 10:15:00;;;;;;;;;;;;;;;;;;5090950;28;19908;-69
2024/01/25 10:17:25;;;;;;;;;;;;;;;;;;5089582;28;19981;-72
2024/01/25 10:19:52;;;;;;;;;;;;;;;;;;5083030;28;19966;-68
2024/01/25 10:22:18;;;;;;;;;;;;;;;;;;5081167;28;20645;-70
2024/01/25 10:24:44;;;;;;;;;;;;;;;;;;5093174;28;20010;-72
2024/01/25 10:27:10;;;;;;;;;;;;;;;;;;5089661;28;19962;-69
2024/01/25 10:29:36;;;;;;;;;;;;;;;;;;5090972;28;19974;-70
2024/01/25 10:32:02;;;;;;;;;;;;;;;;;;5087663;28;19917;-72
2024/01/25 10:34:28;;;;;;;;;;;;;;;;;;5084983;28;19912;-69
2024/01/25 10:36:54;;;;;;;;;;;;;;;;;;5093465;28;19958;-72
2024/01/25 10:39:20;;;;;;;;;;;;;;;;;;5091121;28;19916;-71
2024/01/25 10:41:50;;;;;;;;;;;;;;;;;;5096399;28;19924;-67
2024/01/25 10:44:16;;;;;;;;;;;;;;;;;;5090365;28;19923;-68
2024/01/25 10:46:42;;;;;;;;;;;;;;;;;;5095791;28;19912;-70
2024/01/25 10:49:08;;;;;;;;;;;;;;;;;;5090732;28;19908;-70
2024/01/25 10:51:34;;;;;;;;;;;;;;;;;;5093608;28;20348;-68
2024/01/25 10:54:00;;;;;;;;;;;;;;;;;;5085809;28;20014;-67
2024/01/25 10:56:26;;;;;;;;;;;;;;;;;;5087645;28;20003;-69
2024/01/25 10:58:53;;;;;;;;;;;;;;;;;;5095360;28;19915;-69
2024/01/25 11:01:19;;;;;;;;;;;;;;;;;;5101166;28;19927;-69
2024/01/25 11:03:45;;;;;;;;;;;;;;;;;;5094866;28;20417;-69
2024/01/25 11:06:11;;;;;;;;;;;;;;;;;;5102205;28;19966;-71
2024/01/25 11:08:40;;;;;;;;;;;;;;;;;;5098623;28;19912;-71
2024/01/25 11:11:07;;;;;;;;;;;;;;;;;;5087496;28;20470;-71
2024/01/25 11:13:33;;;;;;;;;;;;;;;;;;5088666;28;19920;-71
2024/01/25 11:15:59;;;;;;;;;;;;;;;;;;5087614;28;19916;-71
2024/01/25 11:18:25;;;;;;;;;;;;;;;;;;5093305;28;19954;-71
2024/01/25 11:20:50;;;;;;;;;;;;;;;;;;5096402;28;20272;-70
2024/01/25 11:23:16;;;;;;;;;;;;;;;;;;5093279;28;19999;-72
2024/01/25 11:25:42;;;;;;;;;;;;;;;;;;5097065;28;19908;-71
2024/01/25 11:28:09;;;;;;;;;;;;;;;;;;5097186;28;20264;-72
2024/01/25 11:30:36;;;;;;;;;;;;;;;;;;5095402;28;19908;-72
2024/01/25 11:33:02;;;;;;;;;;;;;;;;;;5095587;28;19908;-72
2024/01/25 11:35:28;;;;;;;;;;;;;;;;;;5095119;28;20003;-71
2024/01/25 11:37:54;;;;;;;;;;;;;;;;;;5094964;28;19908;-71
2024/01/25 11:40:20;;;;;;;;;;;;;;;;;;5094546;28;19954;-71
2024/01/25 11:42:46;;;;;;;;;;;;;;;;;;5094837;28;20011;-71
2024/01/25 11:45:12;;;;;;;;;;;;;;;;;;5094141;28;20003;-71
2024/01/25 11:47:38;;;;;;;;;;;;;;;;;;5095448;28;20451;-71
2024/01/25 11:50:04;;;;;;;;;;;;;;;;;;5093800;28;19908;-71
2024/01/25 11:52:33;;;;;;;;;;;;;;;;;;5095556;28;20045;-71
2024/01/25 11:54:59;;;;;;;;;;;;;;;;;;5096175;28;20372;-71
2024/01/25 11:57:25;;;;;;;;;;;;;;;;;;5095152;28;19908;-71
2024/01/25 11:59:51;;;;;;;;;;;;;;;;;;5093205;28;19915;-69
2024/01/25 12:02:17;;;;;;;;;;;;;;;;;;5097342;28;19924;-71
2024/01/25 12:04:43;;;;;;;;;;;;;;;;;;5113248;28;19914;-71
2024/01/25 12:07:09;;;;;;;;;;;;;;;;;;5108321;28;19914;-71
2024/01/25 12:09:35;;;;;;;;;;;;;;;;;;5085031;28;19961;-71
2024/01/25 12:12:01;;;;;;;;;;;;;;;;;;5073985;28;19944;-71
2024/01/25 12:14:27;;;;;;;;;;;;;;;;;;5074533;28;19908;-71
2024/01/25 12:16:53;;;;;;;;;;;;;;;;;;5075131;28;19908;-70
2024/01/25 12:19:19;;;;;;;;;;;;;;;;;;5073785;28;20407;-71
2024/01/25 12:21:45;;;;;;;;;;;;;;;;;;5091166;28;20279;-71
2024/01/25 12:24:11;;;;;;;;;;;;;;;;;;5093327;28;19908;-72
2024/01/25 12:26:37;;;;;;;;;;;;;;;;;;5092451;28;19952;-71
2024/01/25 12:29:04;;;;;;;;;;;;;;;;;;5090441;28;19915;-71
2024/01/25 12:31:30;;;;;;;;;;;;;;;;;;5090654;28;19939;-71
2024/01/25 12:33:57;;;;;;;;;;;;;;;;;;5092573;28;20276;-71
2024/01/25 12:36:23;;;;;;;;;;;;;;;;;;5091970;28;19908;-70
2024/01/25 12:38:49;;;;;;;;;;;;;;;;;;5093843;28;19931;-70
2024/01/25 12:41:15;;;;;;;;;;;;;;;;;;5092878;28;19932;-70
2024/01/25 12:43:41;;;;;;;;;;;;;;;;;;5094248;28;20025;-71
2024/01/25 12:46:07;;;;;;;;;;;;;;;;;;5092320;28;19938;-70
2024/01/25 12:48:33;;;;;;;;;;;;;;;;;;5090383;28;19966;-70
2024/01/25 12:50:59;;;;;;;;;;;;;;;;;;5091905;28;19912;-71
2024/01/25 12:53:25;;;;;;;;;;;;;;;;;;5089814;28;19912;-70
2024/01/25 12:55:51;;;;;;;;;;;;;;;;;;5092169;28;20376;-71
2024/01/25 12:58:17;;;;;;;;;;;;;;;;;;5090987;28;19916;-71
2024/01/25 13:00:45;;;;;;;;;;;;;;;;;;5089401;28;19912;-70
2024/01/25 13:03:11;;;;;;;;;;;;;;;;;;5091871;28;20273;-71
2024/01/25 13:05:39;;;;;;;;;;;;;;;;;;5093365;28;19961;-70
2024/01/25 13:08:05;;;;;;;;;;;;;;;;;;5093461;28;19955;-70
2024/01/25 13:10:31;;;;;;;;;;;;;;;;;;5092447;28;19912;-70
2024/01/25 13:12:57;;;;;;;;;;;;;;;;;;5092882;28;20391;-70
2024/01/25 13:15:23;;;;;;;;;;;;;;;;;;5092234;28;20319;-71
2024/01/25 13:17:49;;;;;;;;;;;;;;;;;;5094285;28;19912;-69
2024/01/25 13:20:15;;;;;;;;;;;;;;;;;;5093013;28;19916;-70
2024/01/25 13:22:41;;;;;;;;;;;;;;;;;;5092932;28;20316;-70
2024/01/25 13:25:08;;;;;;;;;;;;;;;;;;5093516;28;19953;-71
2024/01/25 13:27:34;;;;;;;;;;;;;;;;;;5093401;28;19915;-70
2024/01/25 13:30:00;;;;;;;;;;;;;;;;;;5092820;28;20547;-71
2024/01/25 13:32:26;;;;;;;;;;;;;;;;;;5093415;28;19912;-71
2024/01/25 13:34:52;;;;;;;;;;;;;;;;;;5094261;28;19946;-71
2024/01/25 13:37:18;;;;;;;;;;;;;;;;;;5092735;28;19912;-71
2024/01/25 13:39:44;;;;;;;;;;;;;;;;;;5094404;28;19931;-72
2024/01/25 13:42:10;;;;;;;;;;;;;;;;;;5093167;28;20295;-71
2024/01/25 13:44:38;;;;;;;;;;;;;;;;;;5092740;28;19912;-72
2024/01/25 13:47:04;;;;;;;;;;;;;;;;;;5093153;28;20366;-71
2024/01/25 13:49:30;;;;;;;;;;;;;;;;;;5094027;28;19915;-72
2024/01/25 13:51:56;;;;;;;;;;;;;;;;;;5092880;28;20401;-71
2024/01/25 13:54:22;;;;;;;;;;;;;;;;;;5092187;28;20312;-71
2024/01/25 13:56:47;;;;;;;;;;;;;;;;;;5091793;28;20012;-71
2024/01/25 13:59:13;;;;;;;;;;;;;;;;;;5091599;28;19915;-72
2024/01/25 14:01:39;;;;;;;;;;;;;;;;;;5092486;28;19920;-72
2024/01/25 14:04:05;;;;;;;;;;;;;;;;;;5091972;28;20375;-72
2024/01/25 14:06:31;;;;;;;;;;;;;;;;;;5092138;28;20284;-72
2024/01/25 14:08:57;;;;;;;;;;;;;;;;;;5073713;28;20037;-72
2024/01/25 14:11:23;;;;;;;;;;;;;;;;;;5091562;28;19908;-73
2024/01/25 14:13:49;;;;;;;;;;;;;;;;;;5092132;28;19908;-73
2024/01/25 14:16:17;;;;;;;;;;;;;;;;;;5074695;28;19912;-72
2024/01/25 14:18:43;;;;;;;;;;;;;;;;;;5092727;28;19908;-72
2024/01/25 14:21:09;;;;;;;;;;;;;;;;;;5075392;28;20328;-72
2024/01/25 14:23:34;;;;;;;;;;;;;;;;;;5094471;28;19999;-71
2024/01/25 14:26:00;;;;;;;;;;;;;;;;;;5094014;28;20375;-72
2024/01/25 14:28:26;;;;;;;;;;;;;;;;;;5094449;28;20360;-72
2024/01/25 14:30:52;;;;;;;;;;;;;;;;;;5094389;28;20300;-72
2024/01/25 14:33:18;;;;;;;;;;;;;;;;;;5093985;28;19908;-72
2024/01/25 14:35:44;;;;;;;;;;;;;;;;;;5094262;28;19908;-72
2024/01/25 14:38:10;;;;;;;;;;;;;;;;;;5094234;28;19915;-72
2024/01/25 14:40:36;;;;;;;;;;;;;;;;;;5093816;28;20326;-72
2024/01/25 14:43:02;;;;;;;;;;;;;;;;;;5094652;28;19923;-71
2024/01/25 14:45:33;;;;;;;;;;;;;;;;;;5076062;28;20352;-72
2024/01/25 14:47:59;;;;;;;;;;;;;;;;;;5093585;28;19911;-71
2024/01/25 14:50:25;;;;;;;;;;;;;;;;;;5094050;28;19908;-72
2024/01/25 14:52:51;;;;;;;;;;;;;;;;;;5093578;28;20374;-71
2024/01/25 14:55:17;;;;;;;;;;;;;;;;;;5093949;28;20280;-72
2024/01/25 14:57:43;;;;;;;;;;;;;;;;;;5093872;28;19914;-72
2024/01/25 15:00:09;;;;;;;;;;;;;;;;;;5093396;28;20424;-71
2024/01/25 15:02:35;;;;;;;;;;;;;;;;;;5073781;28;19931;-72
2024/01/25 15:05:03;;;;;;;;;;;;;;;;;;5072977;28;20188;-71
2024/01/25 15:07:29;;;;;;;;;;;;;;;;;;5073230;28;19915;-72
2024/01/25 15:09:55;;;;;;;;;;;;;;;;;;5072303;28;19908;-72
2024/01/25 15:12:21;;;;;;;;;;;;;;;;;;5072349;28;19913;-72
2024/01/25 15:14:47;;;;;;;;;;;;;;;;;;5073210;28;20359;-71
2024/01/25 15:17:13;;;;;;;;;;;;;;;;;;5073601;28;19908;-71
2024/01/25 15:19:39;;;;;;;;;;;;;;;;;;5073651;28;20025;-71
2024/01/25 15:22:05;;;;;;;;;;;;;;;;;;5073133;28;19916;-72
2024/01/25 15:24:32;;;;;;;;;;;;;;;;;;5072324;28;19951;-72
2024/01/25 15:26:58;;;;;;;;;;;;;;;;;;5072298;28;19915;-71
2024/01/25 15:29:24;;;;;;;;;;;;;;;;;;5073103;28;19908;-72
2024/01/25 15:31:49;;;;;;;;;;;;;;;;;;5073443;28;19915;-71
2024/01/25 15:34:16;;;;;;;;;;;;;;;;;;5072209;28;19916;-71
2024/01/25 15:36:43;;;;;;;;;;;;;;;;;;5073152;28;20337;-71
2024/01/25 15:39:10;;;;;;;;;;;;;;;;;;5072175;28;19909;-71
2024/01/25 15:41:36;;;;;;;;;;;;;;;;;;5073360;28;20003;-72
2024/01/25 15:44:02;;;;;;;;;;;;;;;;;;5073004;28;19951;-72
2024/01/25 15:46:28;;;;;;;;;;;;;;;;;;5072160;28;19908;-71
2024/01/25 15:48:55;;;;;;;;;;;;;;;;;;5073331;28;19908;-71
2024/01/25 15:51:21;;;;;;;;;;;;;;;;;;5073638;28;20327;-73
2024/01/25 15:53:47;;;;;;;;;;;;;;;;;;5073345;28;19909;-72
2024/01/25 15:56:13;;;;;;;;;;;;;;;;;;5071710;28;19916;-72
2024/01/25 15:58:39;;;;;;;;;;;;;;;;;;5073608;28;19915;-72
2024/01/25 16:01:05;;;;;;;;;;;;;;;;;;5080696;28;19920;-72
2024/01/25 16:03:31;;;;;;;;;;;;;;;;;;5093168;28;19985;-71
2024/01/25 16:05:57;;;;;;;;;;;;;;;;;;5096793;28;20367;-72
2024/01/25 16:08:23;;;;;;;;;;;;;;;;;;5097150;28;19946;-72
2024/01/25 16:10:49;;;;;;;;;;;;;;;;;;5096703;28;19908;-72
2024/01/25 16:13:15;;;;;;;;;;;;;;;;;;5097050;28;19908;-72
2024/01/25 16:15:41;;;;;;;;;;;;;;;;;;5097016;28;19915;-72
2024/01/25 16:18:07;;;;;;;;;;;;;;;;;;5096638;28;19912;-72
2024/01/25 16:20:32;;;;;;;;;;;;;;;;;;5096856;28;20366;-72
2024/01/25 16:22:59;;;;;;;;;;;;;;;;;;5096867;28;20322;-72
2024/01/25 16:25:25;;;;;;;;;;;;;;;;;;5096384;28;19908;-72
2024/01/25 16:27:51;;;;;;;;;;;;;;;;;;5096726;28;19916;-72
2024/01/25 16:30:17;;;;;;;;;;;;;;;;;;5096783;28;19909;-72
2024/01/25 16:32:42;;;;;;;;;;;;;;;;;;5096215;28;19908;-72
2024/01/25 16:35:08;;;;;;;;;;;;;;;;;;5096624;28;19908;-73
2024/01/25 16:37:34;;;;;;;;;;;;;;;;;;5096608;28;19930;-72